createdAt,value
2022-10-26T00:02:23.488Z,11.49
2022-10-26T00:04:55.477Z,11.53
2022-10-26T00:07:27.178Z,11.43
2022-10-26T00:09:58.997Z,11.56
2022-10-26T00:12:30.617Z,11.47
2022-10-26T00:15:05.017Z,11.41
2022-10-26T00:17:36.537Z,11.42
2022-10-26T00:20:09.358Z,11.52
2022-10-26T00:22:40.937Z,11.45
2022-10-26T00:25:13.318Z,11.38
2022-10-26T00:27:44.846Z,11.34
2022-10-26T00:30:19.498Z,11.32
2022-10-26T00:32:51.318Z,11.30
2022-10-26T00:35:41.107Z,11.28
2022-10-26T00:38:14.499Z,11.27
2022-10-26T00:40:46.375Z,11.16
2022-10-26T00:43:42.117Z,11.17
2022-10-26T00:46:22.260Z,11.16
2022-10-26T00:48:56.780Z,11.27
2022-10-26T00:51:33.107Z,11.11
2022-10-26T00:54:07.379Z,11.16
2022-10-26T00:56:39.666Z,11.16
2022-10-26T00:59:14.470Z,11.25
2022-10-26T01:01:50.958Z,11.19
2022-10-26T01:04:22.636Z,11.13
2022-10-26T01:06:56.117Z,11.12
2022-10-26T01:09:28.384Z,11.17
2022-10-26T01:12:00.218Z,11.07
2022-10-26T01:14:32.734Z,11.10
2022-10-26T01:17:20.257Z,11.04
2022-10-26T01:20:20.378Z,11.04
2022-10-26T01:22:57.239Z,11.09
2022-10-26T01:25:58.777Z,11.02
2022-10-26T01:28:44.158Z,11.04
2022-10-26T01:31:24.018Z,10.95
2022-10-26T01:34:03.558Z,11.09
2022-10-26T01:36:42.335Z,11.10
2022-10-26T01:39:19.620Z,11.03
2022-10-26T01:41:53.118Z,10.98
2022-10-26T01:44:29.777Z,10.92
2022-10-26T01:47:06.257Z,11.02
2022-10-26T01:49:42.146Z,10.94
2022-10-26T01:52:14.433Z,10.95
2022-10-26T01:54:46.539Z,10.99
2022-10-26T01:57:22.218Z,10.97
2022-10-26T02:00:09.521Z,10.90
2022-10-26T02:03:12.677Z,10.98
2022-10-26T02:06:09.859Z,10.87
2022-10-26T02:09:01.637Z,10.77
2022-10-26T02:11:42.538Z,10.87
2022-10-26T02:14:21.497Z,10.92
2022-10-26T02:16:59.517Z,10.82
2022-10-26T02:19:41.338Z,10.81
2022-10-26T02:22:19.080Z,10.82
2022-10-26T02:24:53.841Z,10.93
2022-10-26T02:27:30.077Z,10.79
2022-10-26T02:30:04.722Z,10.82
2022-10-26T02:32:41.117Z,10.76
2022-10-26T02:35:19.379Z,10.78
2022-10-26T02:37:54.077Z,10.94
2022-10-26T02:40:29.040Z,10.94
2022-10-26T02:43:04.936Z,10.85
2022-10-26T02:45:42.179Z,10.76
2022-10-26T02:48:14.476Z,10.69
2022-10-26T02:50:58.919Z,10.72
2022-10-26T02:53:36.317Z,10.84
2022-10-26T02:56:16.858Z,10.60
2022-10-26T02:58:54.058Z,10.60
2022-10-26T03:01:26.080Z,10.96
2022-10-26T03:04:01.433Z,10.84
2022-10-26T03:06:36.157Z,10.81
2022-10-26T03:09:08.359Z,10.79
2022-10-26T03:11:40.119Z,10.81
2022-10-26T03:14:12.298Z,10.68
2022-10-26T03:16:44.618Z,10.94
2022-10-26T03:19:16.857Z,10.96
2022-10-26T03:21:51.357Z,10.89
2022-10-26T03:24:23.416Z,10.73
2022-10-26T03:26:58.274Z,10.67
2022-10-26T03:29:33.437Z,10.63
2022-10-26T03:32:05.299Z,10.75
2022-10-26T03:34:37.598Z,11.05
2022-10-26T03:37:12.017Z,10.93
2022-10-26T03:39:44.198Z,10.72
2022-10-26T03:42:16.080Z,10.79
2022-10-26T03:44:48.579Z,10.82
2022-10-26T03:47:20.337Z,10.85
2022-10-26T03:49:52.423Z,10.72
2022-10-26T03:52:27.337Z,10.76
2022-10-26T03:54:59.459Z,10.73
2022-10-26T03:57:31.276Z,10.80
2022-10-26T04:00:03.598Z,10.75
2022-10-26T04:02:35.438Z,10.70
2022-10-26T04:05:08.203Z,10.71
2022-10-26T04:07:42.557Z,10.57
2022-10-26T04:10:14.757Z,10.65
2022-10-26T04:12:46.579Z,10.63
2022-10-26T04:15:19.621Z,10.68
2022-10-26T04:17:51.827Z,10.63
2022-10-26T04:20:24.278Z,10.76
2022-10-26T04:23:06.518Z,10.59
2022-10-26T04:25:38.757Z,10.85
2022-10-26T04:28:11.137Z,10.72
2022-10-26T04:30:43.418Z,10.82
2022-10-26T04:33:14.958Z,10.75
2022-10-26T04:35:48.356Z,10.65
2022-10-26T04:38:22.577Z,10.74
2022-10-26T04:40:54.660Z,10.66
2022-10-26T04:43:26.199Z,10.71
2022-10-26T04:45:59.518Z,10.70
2022-10-26T04:48:31.098Z,10.92
2022-10-26T04:51:03.237Z,10.86
2022-10-26T04:53:37.337Z,10.74
2022-10-26T04:56:09.679Z,10.72
2022-10-26T04:58:41.238Z,10.63
2022-10-26T05:01:13.146Z,10.64
2022-10-26T05:03:44.778Z,10.78
2022-10-26T05:06:16.697Z,10.62
2022-10-26T05:08:51.139Z,10.52
2022-10-26T05:11:22.878Z,10.57
2022-10-26T05:13:54.458Z,10.59
2022-10-26T05:16:26.337Z,10.57
2022-10-26T05:18:57.877Z,10.65
2022-10-26T05:21:29.757Z,10.67
2022-10-26T05:24:10.113Z,10.59
2022-10-26T05:26:44.697Z,10.44
2022-10-26T05:29:16.320Z,10.55
2022-10-26T05:31:48.242Z,10.63
2022-10-26T05:34:19.797Z,10.53
2022-10-26T05:36:51.599Z,10.62
2022-10-26T05:39:26.220Z,10.60
2022-10-26T05:41:58.057Z,10.51
2022-10-26T05:44:29.458Z,10.57
2022-10-26T05:47:01.359Z,10.57
2022-10-26T05:49:32.879Z,10.42
2022-10-26T05:52:04.679Z,10.45
2022-10-26T05:54:39.159Z,10.64
2022-10-26T05:57:14.978Z,10.73
2022-10-26T05:59:47.161Z,10.61
2022-10-26T06:02:30.692Z,10.55
2022-10-26T06:05:07.599Z,10.60
2022-10-26T06:07:40.499Z,10.54
2022-10-26T06:10:17.479Z,10.51
2022-10-26T06:12:50.603Z,10.57
2022-10-26T06:15:24.659Z,10.61
2022-10-26T06:18:06.259Z,10.44
2022-10-26T06:20:50.860Z,10.63
2022-10-26T06:23:42.196Z,10.61
2022-10-26T06:26:24.860Z,10.50
2022-10-26T06:29:02.921Z,10.63
2022-10-26T06:31:34.885Z,10.52
2022-10-26T06:34:07.679Z,10.77
2022-10-26T06:36:41.988Z,11.07
2022-10-26T06:39:17.078Z,10.88
2022-10-26T06:41:53.663Z,10.99
2022-10-26T06:44:27.261Z,10.82
2022-10-26T06:47:07.523Z,10.96
2022-10-26T06:49:42.999Z,10.76
2022-10-26T06:52:21.442Z,10.77
2022-10-26T06:54:55.917Z,10.89
2022-10-26T06:57:37.450Z,10.85
2022-10-26T07:00:19.148Z,11.05
2022-10-26T07:02:51.614Z,11.11
2022-10-26T07:05:24.119Z,11.10
2022-10-26T07:07:55.998Z,11.33
2022-10-26T07:10:28.217Z,11.10
2022-10-26T07:13:02.737Z,11.16
2022-10-26T07:15:34.599Z,11.21
2022-10-26T07:18:07.840Z,11.24
2022-10-26T07:20:42.079Z,11.27
2022-10-26T07:23:16.175Z,11.31
2022-10-26T07:25:48.134Z,11.46
2022-10-26T07:28:22.415Z,11.53
2022-10-26T07:30:56.225Z,11.67
2022-10-26T07:33:27.975Z,11.50
2022-10-26T07:36:01.823Z,11.54
2022-10-26T07:38:33.314Z,11.61
2022-10-26T07:41:05.714Z,11.67
2022-10-26T07:43:39.955Z,11.79
2022-10-26T07:46:11.795Z,11.99
2022-10-26T07:48:45.752Z,11.99
2022-10-26T07:51:17.935Z,12.16
2022-10-26T07:53:49.715Z,12.13
2022-10-26T07:56:21.695Z,12.05
2022-10-26T07:58:56.837Z,12.35
2022-10-26T08:01:28.806Z,12.34
2022-10-26T08:04:00.694Z,12.37
2022-10-26T08:06:32.596Z,12.33
2022-10-26T08:09:04.073Z,12.59
2022-10-26T08:11:37.336Z,12.40
2022-10-26T08:14:13.737Z,12.66
2022-10-26T08:16:46.134Z,12.62
2022-10-26T08:19:17.680Z,12.94
2022-10-26T08:21:49.572Z,12.91
2022-10-26T08:24:21.135Z,12.99
2022-10-26T08:26:53.030Z,12.91
2022-10-26T08:29:27.291Z,13.06
2022-10-26T08:32:00.039Z,13.11
2022-10-26T08:34:31.570Z,13.29
2022-10-26T08:37:03.531Z,13.40
2022-10-26T08:39:35.335Z,13.67
2022-10-26T08:42:14.459Z,13.87
2022-10-26T08:44:51.179Z,13.79
2022-10-26T08:47:26.218Z,14.17
2022-10-26T08:50:05.536Z,14.95
2022-10-26T08:52:47.220Z,16.12
2022-10-26T08:55:22.782Z,17.00
2022-10-26T08:57:57.136Z,18.08
2022-10-26T09:00:33.859Z,18.94
2022-10-26T09:03:16.776Z,19.50
2022-10-26T09:06:10.358Z,19.53
2022-10-26T09:08:53.019Z,19.39
2022-10-26T09:11:34.777Z,19.52
2022-10-26T09:14:16.783Z,19.47
2022-10-26T09:17:01.095Z,19.94
2022-10-26T09:19:52.617Z,20.65
2022-10-26T09:22:30.216Z,20.48
2022-10-26T09:25:15.975Z,21.19
2022-10-26T09:27:52.706Z,21.24
2022-10-26T09:30:26.135Z,20.96
2022-10-26T09:33:03.654Z,20.92
2022-10-26T09:35:47.343Z,21.21
2022-10-26T09:38:27.775Z,21.85
2022-10-26T09:41:06.095Z,22.09
2022-10-26T09:46:25.096Z,22.38
2022-10-26T09:51:38.976Z,21.02
2022-10-26T09:54:18.656Z,21.69
2022-10-26T09:56:55.708Z,21.54
2022-10-26T09:59:29.536Z,21.81
2022-10-26T10:02:02.547Z,22.34
2022-10-26T10:04:39.097Z,22.20
2022-10-26T10:07:21.260Z,22.08
2022-10-26T10:10:11.218Z,22.24
2022-10-26T10:12:43.898Z,22.44
2022-10-26T10:15:25.141Z,22.42
2022-10-26T10:17:59.312Z,22.51
2022-10-26T10:20:36.264Z,22.41
2022-10-26T10:23:09.065Z,21.90
2022-10-26T10:25:42.462Z,21.92
2022-10-26T10:28:25.188Z,22.27
2022-10-26T10:30:59.902Z,22.71
2022-10-26T10:33:41.830Z,22.40
2022-10-26T10:36:21.198Z,22.89
2022-10-26T10:38:55.985Z,22.58
2022-10-26T10:41:31.302Z,22.26
2022-10-26T10:44:09.344Z,21.97
2022-10-26T10:46:41.784Z,21.70
2022-10-26T10:49:27.849Z,21.64
2022-10-26T10:52:02.052Z,22.08
2022-10-26T10:54:37.270Z,21.64
2022-10-26T10:57:21.268Z,22.34
2022-10-26T11:00:06.521Z,22.11
2022-10-26T11:03:07.799Z,21.68
2022-10-26T11:05:57.757Z,21.62
2022-10-26T11:08:35.542Z,21.37
2022-10-26T11:11:17.021Z,21.03
2022-10-26T11:13:54.815Z,21.39
2022-10-26T11:16:33.864Z,21.31
2022-10-26T11:19:20.128Z,21.58
2022-10-26T11:21:56.221Z,21.88
2022-10-26T11:24:36.495Z,21.69
2022-10-26T11:27:16.180Z,21.53
2022-10-26T11:29:59.858Z,21.37
2022-10-26T11:32:43.331Z,20.62
2022-10-26T11:35:21.061Z,20.13
2022-10-26T11:38:06.120Z,20.26
2022-10-26T11:40:59.442Z,20.10
2022-10-26T11:43:39.735Z,20.28
2022-10-26T11:46:19.047Z,19.73
2022-10-26T11:49:02.997Z,19.52
2022-10-26T11:51:42.188Z,19.59
2022-10-26T11:54:26.138Z,19.48
2022-10-26T11:57:10.736Z,18.90
2022-10-26T11:59:51.323Z,18.97
2022-10-26T12:02:26.368Z,18.99
2022-10-26T12:05:04.330Z,18.80
2022-10-26T12:07:41.676Z,18.71
2022-10-26T12:10:24.926Z,19.06
2022-10-26T12:13:10.726Z,19.17
2022-10-26T12:16:04.570Z,19.32
2022-10-26T12:18:59.745Z,18.93
2022-10-26T12:21:34.803Z,18.93
2022-10-26T12:24:31.164Z,18.91
2022-10-26T12:27:06.922Z,18.96
2022-10-26T12:29:49.920Z,19.06
2022-10-26T12:32:58.402Z,19.18
2022-10-26T12:35:39.400Z,18.95
2022-10-26T12:38:54.041Z,18.99
2022-10-26T12:41:33.343Z,18.82
2022-10-26T12:44:39.861Z,19.17
2022-10-26T12:47:34.264Z,19.14
2022-10-26T12:50:22.535Z,18.99
2022-10-26T12:52:59.699Z,19.11
2022-10-26T12:56:07.698Z,19.27
2022-10-26T12:59:24.266Z,19.26
2022-10-26T13:02:39.506Z,19.22
2022-10-26T13:05:33.714Z,19.11
2022-10-26T13:08:07.276Z,19.03
2022-10-26T13:10:41.064Z,18.71
2022-10-26T13:13:27.046Z,18.92
2022-10-26T13:16:00.410Z,18.93
2022-10-26T13:18:44.984Z,18.72
2022-10-26T13:21:18.946Z,18.56
2022-10-26T13:24:01.909Z,18.74
2022-10-26T13:26:35.901Z,19.14
2022-10-26T13:29:14.143Z,19.14
2022-10-26T13:32:00.104Z,19.24
2022-10-26T13:34:36.587Z,19.11
2022-10-26T13:37:19.142Z,19.06
2022-10-26T13:39:56.327Z,19.07
2022-10-26T13:42:31.653Z,18.95
2022-10-26T13:45:10.606Z,19.15
2022-10-26T13:47:49.240Z,19.01
2022-10-26T13:50:31.382Z,19.10
2022-10-26T13:53:11.543Z,19.15
2022-10-26T13:55:54.423Z,19.18
2022-10-26T13:58:34.186Z,19.01
2022-10-26T14:01:16.382Z,19.10
2022-10-26T14:03:49.024Z,19.39
2022-10-26T14:06:30.783Z,19.40
2022-10-26T14:09:05.794Z,19.30
2022-10-26T14:11:46.513Z,19.55
2022-10-26T14:14:26.589Z,19.50
2022-10-26T14:17:00.394Z,19.26
2022-10-26T14:19:34.309Z,19.18
2022-10-26T14:22:10.506Z,19.35
2022-10-26T14:24:47.633Z,19.31
2022-10-26T14:27:22.063Z,19.19
2022-10-26T14:30:20.394Z,19.10
2022-10-26T14:32:47.606Z,19.04
2022-10-26T14:35:20.543Z,19.10
2022-10-26T14:37:59.743Z,19.32
2022-10-26T14:40:34.383Z,19.41
2022-10-26T14:43:09.022Z,19.34
2022-10-26T14:45:48.615Z,19.33
2022-10-26T14:48:30.658Z,19.31
2022-10-26T14:51:04.547Z,19.23
2022-10-26T14:53:44.391Z,19.47
2022-10-26T14:56:41.983Z,19.29
2022-10-26T14:59:16.823Z,18.93
2022-10-26T15:01:55.709Z,18.77
2022-10-26T15:04:37.304Z,18.76
2022-10-26T15:07:19.703Z,18.70
2022-10-26T15:09:56.546Z,18.64
2022-10-26T15:12:36.025Z,18.60
2022-10-26T15:15:23.581Z,18.60
2022-10-26T15:17:57.944Z,18.67
2022-10-26T15:20:32.703Z,18.78
2022-10-26T15:23:06.515Z,18.72
2022-10-26T15:25:43.788Z,18.80
2022-10-26T15:28:26.428Z,18.70
2022-10-26T15:31:07.389Z,18.75
2022-10-26T15:33:41.993Z,18.67
2022-10-26T15:36:19.745Z,18.66
2022-10-26T15:38:52.306Z,18.53
2022-10-26T15:41:31.304Z,18.62
2022-10-26T15:44:07.143Z,18.45
2022-10-26T15:46:41.667Z,18.34
2022-10-26T15:49:21.349Z,18.11
2022-10-26T15:51:55.351Z,18.01
2022-10-26T15:54:27.896Z,18.01
2022-10-26T15:57:04.102Z,17.92
2022-10-26T15:59:38.734Z,17.87
2022-10-26T16:02:17.786Z,17.82
2022-10-26T16:04:50.098Z,17.72
2022-10-26T16:07:24.937Z,17.41
2022-10-26T16:09:58.376Z,17.45
2022-10-26T16:12:34.423Z,17.27
2022-10-26T16:15:07.745Z,17.30
2022-10-26T16:17:40.655Z,17.39
2022-10-26T16:20:17.421Z,17.24
2022-10-26T16:22:52.209Z,17.06
2022-10-26T16:25:27.978Z,17.07
2022-10-26T16:28:04.748Z,17.19
2022-10-26T16:30:37.152Z,17.15
2022-10-26T16:33:09.585Z,17.28
2022-10-26T16:35:41.749Z,17.25
2022-10-26T16:38:14.303Z,17.16
2022-10-26T16:40:46.943Z,17.30
2022-10-26T16:43:22.563Z,17.09
2022-10-26T16:45:57.821Z,17.30
2022-10-26T16:48:30.291Z,17.32
2022-10-26T16:51:11.623Z,17.16
2022-10-26T16:53:44.603Z,17.23
2022-10-26T16:56:18.601Z,17.29
2022-10-26T16:58:54.043Z,17.24
2022-10-26T17:01:26.536Z,17.12
2022-10-26T17:04:01.331Z,17.12
2022-10-26T17:06:33.482Z,17.06
2022-10-26T17:09:06.081Z,17.14
2022-10-26T17:11:38.202Z,17.13
2022-10-26T17:14:13.507Z,17.07
2022-10-26T17:16:45.644Z,16.95
2022-10-26T17:19:18.363Z,16.89
2022-10-26T17:21:50.543Z,16.91
2022-10-26T17:24:23.203Z,16.94
2022-10-26T17:26:55.541Z,16.83
2022-10-26T17:29:31.081Z,17.08
2022-10-26T17:32:03.123Z,16.96
2022-10-26T17:34:35.782Z,16.95
2022-10-26T17:37:07.965Z,16.86
2022-10-26T17:39:40.508Z,16.95
2022-10-26T17:42:12.642Z,16.97
2022-10-26T17:44:47.864Z,16.98
2022-10-26T17:47:19.881Z,16.98
2022-10-26T17:49:52.450Z,16.99
2022-10-26T17:52:25.003Z,16.94
2022-10-26T17:54:59.278Z,16.87
2022-10-26T17:57:35.473Z,16.83
2022-10-26T18:00:12.324Z,16.82
2022-10-26T18:02:44.711Z,17.02
2022-10-26T18:05:17.402Z,16.88
2022-10-26T18:07:49.758Z,16.99
2022-10-26T18:10:38.503Z,16.85
2022-10-26T18:13:10.824Z,16.77
2022-10-26T18:15:46.549Z,16.90
2022-10-26T18:18:18.844Z,16.84
2022-10-26T18:20:51.622Z,16.89
2022-10-26T18:23:23.804Z,16.92
2022-10-26T18:26:09.719Z,16.93
2022-10-26T18:28:45.708Z,16.85
2022-10-26T18:31:23.187Z,16.91
2022-10-26T18:33:59.222Z,17.18
2022-10-26T18:36:32.677Z,16.87
2022-10-26T18:39:04.908Z,16.79
2022-10-26T20:15:15.238Z,15.32
2022-10-26T20:17:47.822Z,15.31
2022-10-26T20:20:19.790Z,15.29
2022-10-26T20:22:52.168Z,15.18
2022-10-26T20:25:24.733Z,15.29
2022-10-26T20:27:57.210Z,15.23
2022-10-26T20:30:33.299Z,15.12
2022-10-26T20:33:05.654Z,15.01
2022-10-26T20:35:37.749Z,14.99
2022-10-26T20:38:18.816Z,14.91
2022-10-26T20:40:56.904Z,14.91
2022-10-26T20:43:30.561Z,14.81
2022-10-26T20:46:05.478Z,14.90
2022-10-26T20:48:38.904Z,14.88
2022-10-26T20:51:19.787Z,14.91
2022-10-26T20:54:00.999Z,14.92
2022-10-26T20:56:33.277Z,14.82
2022-10-26T20:59:06.999Z,14.95
2022-10-26T21:01:41.543Z,14.84
2022-10-26T21:04:13.523Z,14.76
2022-10-26T21:06:45.238Z,14.74
2022-10-26T21:09:17.160Z,14.67
2022-10-26T21:11:48.837Z,14.67
2022-10-26T21:14:20.698Z,14.58
2022-10-26T21:16:54.917Z,14.61
2022-10-26T21:19:26.857Z,14.53
2022-10-26T21:21:58.479Z,14.57
2022-10-26T21:24:30.446Z,14.52
2022-10-26T21:27:01.979Z,14.49
2022-10-26T21:29:33.959Z,14.47
2022-10-26T21:32:08.740Z,14.41
2022-10-26T21:34:40.478Z,14.41
2022-10-26T21:37:11.977Z,14.39
2022-10-26T21:39:44.099Z,14.40
2022-10-26T21:42:15.638Z,14.35
2022-10-26T21:44:47.607Z,14.31
2022-10-26T21:47:21.878Z,14.36
2022-10-26T21:49:53.761Z,14.38
2022-10-26T21:52:25.317Z,14.40
2022-10-26T21:54:57.418Z,14.24
2022-10-26T21:57:29.007Z,14.36
2022-10-26T22:00:00.838Z,14.40
2022-10-26T22:02:35.177Z,14.41
2022-10-26T22:05:07.680Z,14.26
2022-10-26T22:07:39.318Z,14.17
2022-10-26T22:10:11.537Z,14.10
2022-10-26T22:12:43.337Z,14.22
2022-10-26T22:15:15.397Z,14.18
2022-10-26T22:17:49.843Z,14.17
2022-10-26T22:20:21.939Z,14.13
2022-10-26T22:22:53.431Z,14.08
2022-10-26T22:25:25.457Z,14.01
2022-10-26T22:27:57.039Z,14.10
2022-10-26T22:30:29.158Z,14.22
2022-10-26T22:33:03.243Z,14.11
2022-10-26T22:35:35.037Z,14.09
2022-10-26T22:38:06.499Z,14.02
2022-10-26T22:40:40.339Z,14.06
2022-10-26T22:43:12.217Z,14.02
2022-10-26T22:45:44.477Z,13.97
2022-10-26T22:48:19.119Z,14.02
2022-10-26T22:50:51.257Z,14.04
2022-10-26T22:53:23.137Z,13.96
2022-10-26T22:55:57.619Z,13.97
2022-10-26T22:58:29.357Z,13.98
2022-10-26T23:01:06.642Z,13.89
2022-10-26T23:03:41.520Z,13.94
2022-10-26T23:06:16.236Z,13.90
2022-10-26T23:08:48.416Z,13.99
2022-10-26T23:11:22.598Z,13.89
2022-10-26T23:13:56.637Z,13.81
2022-10-26T23:16:29.860Z,13.82
2022-10-26T23:19:04.437Z,13.75
2022-10-26T23:21:36.886Z,13.74
2022-10-26T23:24:09.407Z,13.73
2022-10-26T23:26:41.777Z,13.75
2022-10-26T23:29:13.879Z,13.73
2022-10-26T23:31:46.038Z,13.80
2022-10-26T23:34:20.417Z,13.87
2022-10-26T23:36:52.297Z,13.82
2022-10-26T23:39:23.838Z,13.88
2022-10-26T23:41:55.639Z,13.80
2022-10-26T23:44:27.060Z,13.73
2022-10-26T23:46:59.180Z,13.77
2022-10-26T23:49:33.298Z,13.89
2022-10-26T23:52:05.298Z,13.81
2022-10-26T23:54:36.744Z,13.86
2022-10-26T23:57:08.600Z,13.77
2022-10-26T23:59:40.058Z,13.78
